sensor_id;sensor_type;location;lat;lon;timestamp;pressure;altitude;pressure_sealevel;temperature;humidity
71889;BME280;59762;49.998;14.858;2023-11-21T00:02:22;96584.75;;;7.80;100.00
71889;BME280;59762;49.998;14.858;2023-11-21T00:04:48;96587.22;;;7.74;100.00
71889;BME280;59762;49.998;14.858;2023-11-21T00:07:14;96584.09;;;7.78;100.00
71889;BME280;59762;49.998;14.858;2023-11-21T00:09:40;96586.91;;;7.77;100.00
71889;BME280;59762;49.998;14.858;2023-11-21T00:12:07;96589.41;;;7.78;100.00
71889;BME280;59762;49.998;14.858;2023-11-21T00:14:38;96585.72;;;7.71;100.00
71889;BME280;59762;49.998;14.858;2023-11-21T00:17:04;96582.72;;;7.66;100.00
71889;BME280;59762;49.998;14.858;2023-11-21T00:19:31;96576.53;;;7.66;100.00
71889;BME280;59762;49.998;14.858;2023-11-21T00:21:57;96580.53;;;7.62;100.00
71889;BME280;59762;49.998;14.858;2023-11-21T00:24:24;96581.34;;;7.62;100.00
71889;BME280;59762;49.998;14.858;2023-11-21T00:26:50;96580.16;;;7.57;100.00
71889;BME280;59762;49.998;14.858;2023-11-21T00:29:16;96581.50;;;7.61;100.00
71889;BME280;59762;49.998;14.858;2023-11-21T00:31:44;96587.81;;;7.60;100.00
71889;BME280;59762;49.998;14.858;2023-11-21T00:34:11;96591.78;;;7.56;100.00
71889;BME280;59762;49.998;14.858;2023-11-21T00:36:37;96580.66;;;7.52;100.00
71889;BME280;59762;49.998;14.858;2023-11-21T00:39:03;96587.75;;;7.44;100.00
71889;BME280;59762;49.998;14.858;2023-11-21T00:41:31;96589.63;;;7.51;100.00
71889;BME280;59762;49.998;14.858;2023-11-21T00:43:57;96590.13;;;7.55;100.00
71889;BME280;59762;49.998;14.858;2023-11-21T00:46:24;96587.19;;;7.66;100.00
71889;BME280;59762;49.998;14.858;2023-11-21T00:48:52;96585.47;;;7.57;100.00
71889;BME280;59762;49.998;14.858;2023-11-21T00:51:20;96581.34;;;7.62;100.00
71889;BME280;59762;49.998;14.858;2023-11-21T00:53:47;96585.16;;;7.60;100.00
71889;BME280;59762;49.998;14.858;2023-11-21T00:56:13;96590.13;;;7.55;100.00
71889;BME280;59762;49.998;14.858;2023-11-21T00:58:39;96582.16;;;7.55;100.00
71889;BME280;59762;49.998;14.858;2023-11-21T01:01:09;96586.59;;;7.46;100.00
71889;BME280;59762;49.998;14.858;2023-11-21T01:03:35;96586.28;;;7.49;100.00
71889;BME280;59762;49.998;14.858;2023-11-21T01:06:01;96589.78;;;7.50;100.00
71889;BME280;59762;49.998;14.858;2023-11-21T01:08:26;96582.47;;;7.52;100.00
71889;BME280;59762;49.998;14.858;2023-11-21T01:10:52;96589.25;;;7.46;100.00
71889;BME280;59762;49.998;14.858;2023-11-21T01:13:18;96595.75;;;7.52;100.00
71889;BME280;59762;49.998;14.858;2023-11-21T01:15:43;96598.28;;;7.61;100.00
71889;BME280;59762;49.998;14.858;2023-11-21T01:18:09;96600.91;;;7.53;100.00
71889;BME280;59762;49.998;14.858;2023-11-21T01:20:35;96595.41;;;7.47;100.00
71889;BME280;59762;49.998;14.858;2023-11-21T01:23:01;96590.78;;;7.57;100.00
71889;BME280;59762;49.998;14.858;2023-11-21T01:25:26;96596.44;;;7.54;100.00
71889;BME280;59762;49.998;14.858;2023-11-21T01:27:52;96596.94;;;7.57;100.00
71889;BME280;59762;49.998;14.858;2023-11-21T01:30:18;96588.47;;;7.54;100.00
71889;BME280;59762;49.998;14.858;2023-11-21T01:32:44;96591.59;;;7.49;100.00
71889;BME280;59762;49.998;14.858;2023-11-21T01:35:10;96586.97;;;7.51;100.00
71889;BME280;59762;49.998;14.858;2023-11-21T01:37:39;96590.75;;;7.41;100.00
71889;BME280;59762;49.998;14.858;2023-11-21T01:40:05;96587.03;;;7.34;100.00
71889;BME280;59762;49.998;14.858;2023-11-21T01:42:35;96586.84;;;7.27;100.00
71889;BME280;59762;49.998;14.858;2023-11-21T01:45:01;96581.38;;;7.29;100.00
71889;BME280;59762;49.998;14.858;2023-11-21T01:47:32;96586.19;;;7.25;100.00
71889;BME280;59762;49.998;14.858;2023-11-21T01:49:58;96583.16;;;7.20;100.00
71889;BME280;59762;49.998;14.858;2023-11-21T01:52:25;96586.19;;;7.25;100.00
71889;BME280;59762;49.998;14.858;2023-11-21T01:54:52;96590.13;;;7.21;100.00
71889;BME280;59762;49.998;14.858;2023-11-21T01:57:19;96584.84;;;7.21;100.00
71889;BME280;59762;49.998;14.858;2023-11-21T01:59:47;96582.47;;;7.18;100.00
71889;BME280;59762;49.998;14.858;2023-11-21T02:02:14;96590.09;;;7.13;100.00
71889;BME280;59762;49.998;14.858;2023-11-21T02:04:41;96595.41;;;7.13;100.00
71889;BME280;59762;49.998;14.858;2023-11-21T02:07:07;96596.75;;;7.17;100.00
71889;BME280;59762;49.998;14.858;2023-11-21T02:09:32;96603.72;;;7.18;100.00
71889;BME280;59762;49.998;14.858;2023-11-21T02:12:04;96598.22;;;7.12;100.00
71889;BME280;59762;49.998;14.858;2023-11-21T02:14:30;96597.06;;;7.14;100.00
71889;BME280;59762;49.998;14.858;2023-11-21T02:16:57;96589.44;;;7.19;100.00
71889;BME280;59762;49.998;14.858;2023-11-21T02:19:23;96592.47;;;7.24;100.00
71889;BME280;59762;49.998;14.858;2023-11-21T02:21:52;96587.22;;;7.07;100.00
71889;BME280;59762;49.998;14.858;2023-11-21T02:24:22;96593.16;;;7.01;100.00
71889;BME280;59762;49.998;14.858;2023-11-21T02:26:48;96591.34;;;7.01;100.00
71889;BME280;59762;49.998;14.858;2023-11-21T02:29:20;96585.38;;;7.07;100.00
71889;BME280;59762;49.998;14.858;2023-11-21T02:31:54;96590.88;;;7.06;100.00
71889;BME280;59762;49.998;14.858;2023-11-21T02:34:21;96585.72;;;7.04;100.00
71889;BME280;59762;49.998;14.858;2023-11-21T02:36:47;96591.38;;;7.09;100.00
71889;BME280;59762;49.998;14.858;2023-11-21T02:39:17;96591.34;;;7.01;100.00
71889;BME280;59762;49.998;14.858;2023-11-21T02:41:43;96589.53;;;7.02;100.00
71889;BME280;59762;49.998;14.858;2023-11-21T02:44:09;96591.03;;;7.04;100.00
71889;BME280;59762;49.998;14.858;2023-11-21T02:46:36;96584.72;;;7.05;100.00
71889;BME280;59762;49.998;14.858;2023-11-21T02:49:03;96594.41;;;7.14;100.00
71889;BME280;59762;49.998;14.858;2023-11-21T02:51:30;96594.13;;;7.00;100.00
71889;BME280;59762;49.998;14.858;2023-11-21T02:53:56;96596.13;;;6.98;100.00
71889;BME280;59762;49.998;14.858;2023-11-21T02:56:26;96599.38;;;6.92;100.00
71889;BME280;59762;49.998;14.858;2023-11-21T02:58:52;96591.75;;;6.89;100.00
71889;BME280;59762;49.998;14.858;2023-11-21T03:01:18;96588.97;;;6.90;100.00
71889;BME280;59762;49.998;14.858;2023-11-21T03:03:43;96598.44;;;6.93;100.00
71889;BME280;59762;49.998;14.858;2023-11-21T03:06:09;96584.63;;;6.89;100.00
71889;BME280;59762;49.998;14.858;2023-11-21T03:08:35;96583.44;;;6.84;100.00
71889;BME280;59762;49.998;14.858;2023-11-21T03:11:01;96581.75;;;6.83;100.00
71889;BME280;59762;49.998;14.858;2023-11-21T03:13:29;96579.72;;;6.77;100.00
71889;BME280;59762;49.998;14.858;2023-11-21T03:15:54;96575.78;;;6.81;100.00
71889;BME280;59762;49.998;14.858;2023-11-21T03:18:21;96583.03;;;6.79;100.00
71889;BME280;59762;49.998;14.858;2023-11-21T03:20:52;96582.75;;;6.82;100.00
71889;BME280;59762;49.998;14.858;2023-11-21T03:23:17;96590.34;;;6.77;100.00
71889;BME280;59762;49.998;14.858;2023-11-21T03:25:43;96578.75;;;6.78;100.00
71889;BME280;59762;49.998;14.858;2023-11-21T03:28:09;96586.84;;;6.76;100.00
71889;BME280;59762;49.998;14.858;2023-11-21T03:30:35;96584.03;;;6.78;100.00
71889;BME280;59762;49.998;14.858;2023-11-21T03:33:00;96584.81;;;6.70;100.00
71889;BME280;59762;49.998;14.858;2023-11-21T03:35:26;96586.34;;;6.73;100.00
71889;BME280;59762;49.998;14.858;2023-11-21T03:37:53;96580.16;;;6.64;100.00
71889;BME280;59762;49.998;14.858;2023-11-21T03:40:19;96584.13;;;6.68;100.00
71889;BME280;59762;49.998;14.858;2023-11-21T03:42:46;96585.44;;;6.64;100.00
71889;BME280;59762;49.998;14.858;2023-11-21T03:45:12;96588.63;;;6.68;100.00
71889;BME280;59762;49.998;14.858;2023-11-21T03:47:41;96592.06;;;6.60;100.00
71889;BME280;59762;49.998;14.858;2023-11-21T03:50:07;96597.72;;;6.65;100.00
71889;BME280;59762;49.998;14.858;2023-11-21T03:52:34;96591.88;;;6.62;100.00
71889;BME280;59762;49.998;14.858;2023-11-21T03:55:03;96595.88;;;6.66;100.00
71889;BME280;59762;49.998;14.858;2023-11-21T03:57:29;96601.66;;;6.61;100.00
71889;BME280;59762;49.998;14.858;2023-11-21T03:59:55;96598.53;;;6.66;100.00
71889;BME280;59762;49.998;14.858;2023-11-21T04:02:20;96596.06;;;6.64;100.00
71889;BME280;59762;49.998;14.858;2023-11-21T04:04:46;96602.34;;;6.63;100.00
71889;BME280;59762;49.998;14.858;2023-11-21T04:07:12;96601.50;;;6.63;100.00
71889;BME280;59762;49.998;14.858;2023-11-21T04:09:39;96608.78;;;6.61;100.00
71889;BME280;59762;49.998;14.858;2023-11-21T04:12:07;96603.94;;;6.56;100.00
71889;BME280;59762;49.998;14.858;2023-11-21T04:14:34;96606.13;;;6.61;100.00
71889;BME280;59762;49.998;14.858;2023-11-21T04:17:00;96613.72;;;6.56;100.00
71889;BME280;59762;49.998;14.858;2023-11-21T04:19:26;96609.09;;;6.58;100.00
71889;BME280;59762;49.998;14.858;2023-11-21T04:21:51;96615.22;;;6.58;100.00
71889;BME280;59762;49.998;14.858;2023-11-21T04:24:18;96615.22;;;6.58;100.00
71889;BME280;59762;49.998;14.858;2023-11-21T04:26:44;96614.22;;;6.59;100.00
71889;BME280;59762;49.998;14.858;2023-11-21T04:29:10;96617.44;;;6.63;100.00
71889;BME280;59762;49.998;14.858;2023-11-21T04:31:36;96616.59;;;6.62;100.00
71889;BME280;59762;49.998;14.858;2023-11-21T04:34:02;96611.22;;;6.54;100.00
71889;BME280;59762;49.998;14.858;2023-11-21T04:36:29;96614.78;;;6.63;100.00
71889;BME280;59762;49.998;14.858;2023-11-21T04:38:56;96609.38;;;6.72;100.00
71889;BME280;59762;49.998;14.858;2023-11-21T04:41:22;96610.84;;;6.67;100.00
71889;BME280;59762;49.998;14.858;2023-11-21T04:43:48;96608.56;;;6.72;100.00
71889;BME280;59762;49.998;14.858;2023-11-21T04:46:14;96614.44;;;6.66;100.00
71889;BME280;59762;49.998;14.858;2023-11-21T04:48:40;96618.47;;;6.70;100.00
71889;BME280;59762;49.998;14.858;2023-11-21T04:51:06;96613.75;;;6.81;100.00
71889;BME280;59762;49.998;14.858;2023-11-21T04:53:32;96609.91;;;6.76;100.00
71889;BME280;59762;49.998;14.858;2023-11-21T04:55:57;96610.66;;;6.68;100.00
71889;BME280;59762;49.998;14.858;2023-11-21T04:58:24;96611.66;;;6.67;100.00
71889;BME280;59762;49.998;14.858;2023-11-21T05:00:50;96609.16;;;6.66;100.00
71889;BME280;59762;49.998;14.858;2023-11-21T05:03:15;96621.75;;;6.64;100.00
71889;BME280;59762;49.998;14.858;2023-11-21T05:05:41;96625.06;;;6.66;100.00
71889;BME280;59762;49.998;14.858;2023-11-21T05:08:07;96622.41;;;6.66;100.00
71889;BME280;59762;49.998;14.858;2023-11-21T05:10:33;96627.50;;;6.59;100.00
71889;BME280;59762;49.998;14.858;2023-11-21T05:12:59;96629.91;;;6.70;100.00
71889;BME280;59762;49.998;14.858;2023-11-21T05:15:25;96623.88;;;6.60;100.00
71889;BME280;59762;49.998;14.858;2023-11-21T05:17:53;96623.88;;;6.60;100.00
71889;BME280;59762;49.998;14.858;2023-11-21T05:20:19;96628.34;;;6.60;100.00
71889;BME280;59762;49.998;14.858;2023-11-21T05:22:47;96624.84;;;6.59;100.00
71889;BME280;59762;49.998;14.858;2023-11-21T05:25:16;96627.44;;;6.51;100.00
71889;BME280;59762;49.998;14.858;2023-11-21T05:27:46;96626.91;;;6.48;100.00
71889;BME280;59762;49.998;14.858;2023-11-21T05:30:13;96621.97;;;6.53;100.00
71889;BME280;59762;49.998;14.858;2023-11-21T05:32:40;96624.38;;;6.46;100.00
71889;BME280;59762;49.998;14.858;2023-11-21T05:35:08;96622.06;;;6.43;100.00
71889;BME280;59762;49.998;14.858;2023-11-21T05:37:35;96631.22;;;6.49;100.00
71889;BME280;59762;49.998;14.858;2023-11-21T05:40:01;96635.31;;;6.43;100.00
71889;BME280;59762;49.998;14.858;2023-11-21T05:42:32;96635.19;;;6.45;100.00
71889;BME280;59762;49.998;14.858;2023-11-21T05:44:57;96621.44;;;6.49;100.00
71889;BME280;59762;49.998;14.858;2023-11-21T05:47:25;96631.81;;;6.43;100.00
71889;BME280;59762;49.998;14.858;2023-11-21T05:49:53;96635.47;;;6.42;100.00
71889;BME280;59762;49.998;14.858;2023-11-21T05:52:19;96634.09;;;6.38;100.00
71889;BME280;59762;49.998;14.858;2023-11-21T05:54:45;96638.88;;;6.34;100.00
71889;BME280;59762;49.998;14.858;2023-11-21T05:57:11;96641.91;;;6.39;100.00
71889;BME280;59762;49.998;14.858;2023-11-21T05:59:37;96644.19;;;6.34;100.00
71889;BME280;59762;49.998;14.858;2023-11-21T06:02:03;96650.16;;;6.36;100.00
71889;BME280;59762;49.998;14.858;2023-11-21T06:04:28;96652.16;;;6.34;100.00
71889;BME280;59762;49.998;14.858;2023-11-21T06:06:54;96652.97;;;6.35;100.00
71889;BME280;59762;49.998;14.858;2023-11-21T06:09:20;96659.91;;;6.36;100.00
71889;BME280;59762;49.998;14.858;2023-11-21T06:11:46;96666.78;;;6.38;100.00
71889;BME280;59762;49.998;14.858;2023-11-21T06:14:11;96664.78;;;6.40;100.00
71889;BME280;59762;49.998;14.858;2023-11-21T06:16:37;96663.78;;;6.41;100.00
71889;BME280;59762;49.998;14.858;2023-11-21T06:19:03;96673.97;;;6.46;100.00
71889;BME280;59762;49.998;14.858;2023-11-21T06:21:30;96668.66;;;6.46;100.00
71889;BME280;59762;49.998;14.858;2023-11-21T06:23:56;96672.44;;;6.43;100.00
71889;BME280;59762;49.998;14.858;2023-11-21T06:26:23;96675.09;;;6.43;100.00
71889;BME280;59762;49.998;14.858;2023-11-21T06:28:49;96675.09;;;6.43;100.00
71889;BME280;59762;49.998;14.858;2023-11-21T06:31:16;96677.97;;;6.50;100.00
71889;BME280;59762;49.998;14.858;2023-11-21T06:33:43;96672.22;;;6.37;100.00
71889;BME280;59762;49.998;14.858;2023-11-21T06:36:09;96682.50;;;6.40;100.00
71889;BME280;59762;49.998;14.858;2023-11-21T06:38:37;96685.63;;;6.35;100.00
71889;BME280;59762;49.998;14.858;2023-11-21T06:41:03;96679.03;;;6.39;100.00
71889;BME280;59762;49.998;14.858;2023-11-21T06:43:30;96683.50;;;6.39;100.00
71889;BME280;59762;49.998;14.858;2023-11-21T06:45:57;96685.47;;;6.37;100.00
71889;BME280;59762;49.998;14.858;2023-11-21T06:48:22;96690.41;;;6.32;100.00
71889;BME280;59762;49.998;14.858;2023-11-21T06:50:48;96683.50;;;6.39;100.00
71889;BME280;59762;49.998;14.858;2023-11-21T06:53:14;96692.38;;;6.47;100.00
71889;BME280;59762;49.998;14.858;2023-11-21T06:55:40;96682.34;;;6.41;100.00
71889;BME280;59762;49.998;14.858;2023-11-21T06:58:06;96690.69;;;6.46;100.00
71889;BME280;59762;49.998;14.858;2023-11-21T07:00:31;96687.38;;;6.44;100.00
71889;BME280;59762;49.998;14.858;2023-11-21T07:02:57;96690.25;;;6.51;100.00
71889;BME280;59762;49.998;14.858;2023-11-21T07:05:23;96691.75;;;6.53;100.00
71889;BME280;59762;49.998;14.858;2023-11-21T07:07:49;96689.97;;;6.54;100.00
71889;BME280;59762;49.998;14.858;2023-11-21T07:10:15;96690.91;;;6.53;100.00
71889;BME280;59762;49.998;14.858;2023-11-21T07:12:41;96688.44;;;6.51;100.00
71889;BME280;59762;49.998;14.858;2023-11-21T07:15:07;96700.56;;;6.54;100.00
71889;BME280;59762;49.998;14.858;2023-11-21T07:17:35;96695.94;;;6.56;100.00
71889;BME280;59762;49.998;14.858;2023-11-21T07:20:02;96700.84;;;6.51;100.00
71889;BME280;59762;49.998;14.858;2023-11-21T07:22:28;96709.03;;;6.57;100.00
71889;BME280;59762;49.998;14.858;2023-11-21T07:24:53;96705.41;;;6.58;100.00
71889;BME280;59762;49.998;14.858;2023-11-21T07:27:19;96706.91;;;6.61;100.00
71889;BME280;59762;49.998;14.858;2023-11-21T07:29:45;96705.34;;;6.68;100.00
71889;BME280;59762;49.998;14.858;2023-11-21T07:32:10;96706.16;;;6.68;100.00
71889;BME280;59762;49.998;14.858;2023-11-21T07:34:36;96714.06;;;6.60;100.00
71889;BME280;59762;49.998;14.858;2023-11-21T07:37:03;96710.34;;;6.71;100.00
71889;BME280;59762;49.998;14.858;2023-11-21T07:39:28;96714.66;;;6.72;100.00
71889;BME280;59762;49.998;14.858;2023-11-21T07:41:55;96721.19;;;6.77;100.00
71889;BME280;59762;49.998;14.858;2023-11-21T07:44:20;96719.19;;;6.79;100.00
71889;BME280;59762;49.998;14.858;2023-11-21T07:46:48;96717.53;;;6.78;100.00
71889;BME280;59762;49.998;14.858;2023-11-21T07:49:15;96718.91;;;6.82;100.00
71889;BME280;59762;49.998;14.858;2023-11-21T07:51:43;96727.16;;;6.79;100.00
71889;BME280;59762;49.998;14.858;2023-11-21T07:54:09;96727.53;;;6.84;100.00
71889;BME280;59762;49.998;14.858;2023-11-21T07:56:35;96728.22;;;6.86;100.00
71889;BME280;59762;49.998;14.858;2023-11-21T07:59:01;96728.34;;;7.02;100.00
71889;BME280;59762;49.998;14.858;2023-11-21T08:01:27;96724.44;;;6.89;100.00
71889;BME280;59762;49.998;14.858;2023-11-21T08:03:54;96722.09;;;7.03;100.00
71889;BME280;59762;49.998;14.858;2023-11-21T08:06:23;96724.03;;;7.19;100.00
71889;BME280;59762;49.998;14.858;2023-11-21T08:08:49;96722.03;;;7.21;100.00
71889;BME280;59762;49.998;14.858;2023-11-21T08:11:15;96723.50;;;7.15;100.00
71889;BME280;59762;49.998;14.858;2023-11-21T08:13:42;96721.25;;;7.28;100.00
71889;BME280;59762;49.998;14.858;2023-11-21T08:16:08;96726.84;;;7.43;100.00
71889;BME280;59762;49.998;14.858;2023-11-21T08:18:33;96728.25;;;7.29;100.00
71889;BME280;59762;49.998;14.858;2023-11-21T08:20:59;96735.31;;;7.21;100.00
71889;BME280;59762;49.998;14.858;2023-11-21T08:23:26;96732.84;;;7.45;100.00
71889;BME280;59762;49.998;14.858;2023-11-21T08:25:52;96733.06;;;7.51;100.00
71889;BME280;59762;49.998;14.858;2023-11-21T08:28:18;96735.66;;;7.43;100.00
71889;BME280;59762;49.998;14.858;2023-11-21T08:30:44;96744.94;;;7.39;100.00
71889;BME280;59762;49.998;14.858;2023-11-21T08:33:10;96735.53;;;7.53;100.00
71889;BME280;59762;49.998;14.858;2023-11-21T08:35:37;96733.06;;;7.51;100.00
71889;BME280;59762;49.998;14.858;2023-11-21T08:38:03;96732.38;;;7.49;100.00
71889;BME280;59762;49.998;14.858;2023-11-21T08:40:29;96740.25;;;7.59;100.00
71889;BME280;59762;49.998;14.858;2023-11-21T08:42:55;96743.16;;;7.48;100.00
71889;BME280;59762;49.998;14.858;2023-11-21T08:45:25;96748.38;;;7.57;100.00
71889;BME280;59762;49.998;14.858;2023-11-21T08:47:53;96751.28;;;7.46;100.00
71889;BME280;59762;49.998;14.858;2023-11-21T08:50:19;96745.19;;;7.54;100.00
71889;BME280;59762;49.998;14.858;2023-11-21T08:52:45;96746.56;;;7.58;100.00
71889;BME280;59762;49.998;14.858;2023-11-21T08:55:14;96750.56;;;7.62;100.00
71889;BME280;59762;49.998;14.858;2023-11-21T08:57:41;96753.94;;;7.72;100.00
71889;BME280;59762;49.998;14.858;2023-11-21T09:00:08;96761.34;;;7.86;100.00
71889;BME280;59762;49.998;14.858;2023-11-21T09:02:38;96760.63;;;7.76;100.00
71889;BME280;59762;49.998;14.858;2023-11-21T09:05:05;96762.91;;;7.96;100.00
71889;BME280;59762;49.998;14.858;2023-11-21T09:07:31;96764.25;;;8.00;100.00
71889;BME280;59762;49.998;14.858;2023-11-21T09:09:57;96761.28;;;8.03;100.00
71889;BME280;59762;49.998;14.858;2023-11-21T09:12:23;96765.56;;;7.96;100.00
71889;BME280;59762;49.998;14.858;2023-11-21T09:14:50;96771.41;;;8.26;100.00
71889;BME280;59762;49.998;14.858;2023-11-21T09:17:16;96772.13;;;8.10;100.00
71889;BME280;59762;49.998;14.858;2023-11-21T09:19:42;96776.31;;;8.21;100.00
71889;BME280;59762;49.998;14.858;2023-11-21T09:22:16;96779.00;;;7.95;100.00
71889;BME280;59762;49.998;14.858;2023-11-21T09:24:41;96778.00;;;7.96;100.00
71889;BME280;59762;49.998;14.858;2023-11-21T09:27:08;96772.81;;;7.86;100.00
71889;BME280;59762;49.998;14.858;2023-11-21T09:29:35;96776.44;;;7.85;100.00
71889;BME280;59762;49.998;14.858;2023-11-21T09:32:01;96785.28;;;8.19;100.00
71889;BME280;59762;49.998;14.858;2023-11-21T09:34:27;96782.50;;;7.95;100.00
71889;BME280;59762;49.998;14.858;2023-11-21T09:36:53;96786.63;;;7.90;100.00
71889;BME280;59762;49.998;14.858;2023-11-21T09:39:19;96793.09;;;7.87;100.00
71889;BME280;59762;49.998;14.858;2023-11-21T09:41:52;96788.06;;;8.10;100.00
71889;BME280;59762;49.998;14.858;2023-11-21T09:44:31;96782.66;;;7.94;100.00
71889;BME280;59762;49.998;14.858;2023-11-21T09:46:59;96785.16;;;7.95;100.00
71889;BME280;59762;49.998;14.858;2023-11-21T09:49:26;96787.72;;;7.79;100.00
71889;BME280;59762;49.998;14.858;2023-11-21T09:51:54;96781.72;;;7.77;100.00
71889;BME280;59762;49.998;14.858;2023-11-21T09:54:21;96792.72;;;7.82;100.00
71889;BME280;59762;49.998;14.858;2023-11-21T09:56:48;96789.22;;;7.82;100.00
71889;BME280;59762;49.998;14.858;2023-11-21T09:59:16;96798.28;;;7.71;100.00
71889;BME280;59762;49.998;14.858;2023-11-21T10:01:42;96790.81;;;7.75;100.00
71889;BME280;59762;49.998;14.858;2023-11-21T10:04:09;96802.88;;;7.87;100.00
71889;BME280;59762;49.998;14.858;2023-11-21T10:06:41;96798.34;;;7.79;100.00
71889;BME280;59762;49.998;14.858;2023-11-21T10:09:13;96796.25;;;7.91;100.00
71889;BME280;59762;49.998;14.858;2023-11-21T10:11:40;96801.88;;;7.88;100.00
71889;BME280;59762;49.998;14.858;2023-11-21T10:14:08;96801.22;;;8.19;100.00
71889;BME280;59762;49.998;14.858;2023-11-21T10:16:37;96801.53;;;8.08;100.00
71889;BME280;59762;49.998;14.858;2023-11-21T10:19:04;96801.16;;;8.03;100.00
71889;BME280;59762;49.998;14.858;2023-11-21T10:21:35;96796.97;;;8.01;100.00
71889;BME280;59762;49.998;14.858;2023-11-21T10:24:00;96798.81;;;8.00;100.00
71889;BME280;59762;49.998;14.858;2023-11-21T10:26:27;96798.50;;;8.03;100.00
71889;BME280;59762;49.998;14.858;2023-11-21T10:29:00;96800.63;;;8.00;100.00
71889;BME280;59762;49.998;14.858;2023-11-21T10:31:27;96800.31;;;8.03;100.00
71889;BME280;59762;49.998;14.858;2023-11-21T10:33:52;96808.53;;;7.92;100.00
71889;BME280;59762;49.998;14.858;2023-11-21T10:36:26;96810.16;;;8.10;100.00
71889;BME280;59762;49.998;14.858;2023-11-21T10:38:52;96806.34;;;8.13;100.00
71889;BME280;59762;49.998;14.858;2023-11-21T10:41:20;96799.72;;;8.17;100.00
71889;BME280;59762;49.998;14.858;2023-11-21T10:43:45;96807.38;;;8.46;100.00
71889;BME280;59762;49.998;14.858;2023-11-21T10:46:12;96808.78;;;8.24;100.00
71889;BME280;59762;49.998;14.858;2023-11-21T10:48:41;96817.78;;;8.31;100.00
71889;BME280;59762;49.998;14.858;2023-11-21T10:51:08;96814.66;;;8.36;100.00
71889;BME280;59762;49.998;14.858;2023-11-21T10:53:41;96809.38;;;8.44;100.00
71889;BME280;59762;49.998;14.858;2023-11-21T10:56:08;96805.56;;;8.46;100.00
71889;BME280;59762;49.998;14.858;2023-11-21T10:58:43;96800.19;;;8.38;100.00
71889;BME280;59762;49.998;14.858;2023-11-21T11:01:09;96803.69;;;8.39;100.00
71889;BME280;59762;49.998;14.858;2023-11-21T11:03:37;96790.56;;;8.37;100.00
71889;BME280;59762;49.998;14.858;2023-11-21T11:06:04;96795.53;;;8.40;100.00
71889;BME280;59762;49.998;14.858;2023-11-21T11:08:34;96783.78;;;8.43;100.00
71889;BME280;59762;49.998;14.858;2023-11-21T11:11:00;96779.88;;;8.29;100.00
71889;BME280;59762;49.998;14.858;2023-11-21T11:13:26;96791.75;;;8.51;100.00
71889;BME280;59762;49.998;14.858;2023-11-21T11:15:58;96790.97;;;8.58;100.00
71889;BME280;59762;49.998;14.858;2023-11-21T11:18:25;96789.56;;;8.88;100.00
71889;BME280;59762;49.998;14.858;2023-11-21T11:20:52;96788.94;;;8.52;100.00
71889;BME280;59762;49.998;14.858;2023-11-21T11:23:34;96793.22;;;8.87;100.00
71889;BME280;59762;49.998;14.858;2023-11-21T11:26:37;96800.44;;;9.10;100.00
71889;BME280;59762;49.998;14.858;2023-11-21T11:32:50;96799.16;;;8.73;100.00
71889;BME280;59762;49.998;14.858;2023-11-21T11:35:01;96787.56;;;8.82;100.00
71889;BME280;59762;49.998;14.858;2023-11-21T11:37:29;96792.25;;;8.96;100.00
71889;BME280;59762;49.998;14.858;2023-11-21T11:39:56;96789.06;;;8.84;100.00
71889;BME280;59762;49.998;14.858;2023-11-21T11:42:22;96790.22;;;8.90;100.00
71889;BME280;59762;49.998;14.858;2023-11-21T11:44:50;96779.31;;;9.17;100.00
71889;BME280;59762;49.998;14.858;2023-11-21T11:47:27;96779.94;;;9.03;100.00
71889;BME280;59762;49.998;14.858;2023-11-21T11:50:07;96788.47;;;9.14;100.00
71889;BME280;59762;49.998;14.858;2023-11-21T11:52:40;96780.94;;;9.02;100.00
71889;BME280;59762;49.998;14.858;2023-11-21T11:55:08;96786.63;;;9.31;100.00
71889;BME280;59762;49.998;14.858;2023-11-21T11:57:36;96801.06;;;9.04;100.00
71889;BME280;59762;49.998;14.858;2023-11-21T12:02:44;96786.38;;;8.92;100.00
71889;BME280;59762;49.998;14.858;2023-11-21T12:05:11;96791.53;;;8.78;100.00
71889;BME280;59762;49.998;14.858;2023-11-21T12:10:17;96785.47;;;9.33;100.00
71889;BME280;59762;49.998;14.858;2023-11-21T12:12:53;96792.25;;;9.12;100.00
71889;BME280;59762;49.998;14.858;2023-11-21T12:15:20;96783.91;;;8.99;100.00
71889;BME280;59762;49.998;14.858;2023-11-21T12:17:48;96788.09;;;9.17;100.00
71889;BME280;59762;49.998;14.858;2023-11-21T12:20:22;96789.53;;;8.80;100.00
71889;BME280;59762;49.998;14.858;2023-11-21T12:22:59;96785.53;;;8.76;100.00
71889;BME280;59762;49.998;14.858;2023-11-21T12:25:27;96788.19;;;8.76;100.00
71889;BME280;59762;49.998;14.858;2023-11-21T12:28:00;96788.84;;;8.70;100.00
71889;BME280;59762;49.998;14.858;2023-11-21T12:30:29;96791.56;;;8.94;100.00
71889;BME280;59762;49.998;14.858;2023-11-21T12:32:57;96798.75;;;9.09;100.00
71889;BME280;59762;49.998;14.858;2023-11-21T12:35:29;96799.13;;;9.14;100.00
71889;BME280;59762;49.998;14.858;2023-11-21T12:37:56;96796.06;;;8.93;100.00
71889;BME280;59762;49.998;14.858;2023-11-21T12:40:25;96791.88;;;8.83;100.00
71889;BME280;59762;49.998;14.858;2023-11-21T12:42:59;96795.34;;;8.83;100.00
71889;BME280;59762;49.998;14.858;2023-11-21T12:45:27;96797.34;;;8.73;100.00
71889;BME280;59762;49.998;14.858;2023-11-21T12:48:01;96793.13;;;8.63;100.00
71889;BME280;59762;49.998;14.858;2023-11-21T12:50:30;96795.91;;;8.45;100.00
71889;BME280;59762;49.998;14.858;2023-11-21T12:53:01;96793.81;;;8.65;100.00
71889;BME280;59762;49.998;14.858;2023-11-21T12:55:33;96804.13;;;8.68;100.00
71889;BME280;59762;49.998;14.858;2023-11-21T12:58:04;96795.00;;;8.70;100.00
71889;BME280;59762;49.998;14.858;2023-11-21T13:00:40;96801.34;;;8.77;100.00